sensor_id;sensor_type;location;lat;lon;timestamp;P1;durP1;ratioP1;P2;durP2;ratioP2
42912;SDS011;50720;54.324;18.558;2023-08-20T00:00:47;25.50;;;21.13;;
42912;SDS011;50720;54.324;18.558;2023-08-20T00:03:48;21.38;;;19.08;;
42912;SDS011;50720;54.324;18.558;2023-08-20T00:06:38;23.50;;;19.80;;
42912;SDS011;50720;54.324;18.558;2023-08-20T00:09:27;22.77;;;20.42;;
42912;SDS011;50720;54.324;18.558;2023-08-20T00:12:15;22.52;;;19.60;;
42912;SDS011;50720;54.324;18.558;2023-08-20T00:15:03;23.35;;;20.35;;
42912;SDS011;50720;54.324;18.558;2023-08-20T00:17:51;24.27;;;21.30;;
42912;SDS011;50720;54.324;18.558;2023-08-20T00:20:39;27.15;;;22.90;;
42912;SDS011;50720;54.324;18.558;2023-08-20T00:23:29;23.98;;;20.42;;
42912;SDS011;50720;54.324;18.558;2023-08-20T00:26:16;25.40;;;20.73;;
42912;SDS011;50720;54.324;18.558;2023-08-20T00:29:04;25.25;;;21.70;;
42912;SDS011;50720;54.324;18.558;2023-08-20T00:31:51;25.42;;;21.55;;
42912;SDS011;50720;54.324;18.558;2023-08-20T00:34:38;23.80;;;21.20;;
42912;SDS011;50720;54.324;18.558;2023-08-20T00:37:26;23.98;;;21.50;;
42912;SDS011;50720;54.324;18.558;2023-08-20T00:40:15;25.52;;;22.73;;
42912;SDS011;50720;54.324;18.558;2023-08-20T00:43:01;25.60;;;22.90;;
42912;SDS011;50720;54.324;18.558;2023-08-20T00:45:49;27.83;;;23.42;;
42912;SDS011;50720;54.324;18.558;2023-08-20T00:48:37;26.88;;;22.15;;
42912;SDS011;50720;54.324;18.558;2023-08-20T00:51:25;24.65;;;21.80;;
42912;SDS011;50720;54.324;18.558;2023-08-20T00:54:12;22.80;;;20.23;;
42912;SDS011;50720;54.324;18.558;2023-08-20T00:57:01;25.90;;;22.60;;
42912;SDS011;50720;54.324;18.558;2023-08-20T00:59:48;24.10;;;20.85;;
42912;SDS011;50720;54.324;18.558;2023-08-20T01:02:37;24.30;;;21.75;;
42912;SDS011;50720;54.324;18.558;2023-08-20T01:05:24;27.92;;;21.65;;
42912;SDS011;50720;54.324;18.558;2023-08-20T01:08:16;22.85;;;20.50;;
42912;SDS011;50720;54.324;18.558;2023-08-20T01:11:16;26.30;;;20.48;;
42912;SDS011;50720;54.324;18.558;2023-08-20T01:14:15;25.65;;;22.08;;
42912;SDS011;50720;54.324;18.558;2023-08-20T01:17:02;27.00;;;23.33;;
42912;SDS011;50720;54.324;18.558;2023-08-20T01:19:50;28.90;;;24.55;;
42912;SDS011;50720;54.324;18.558;2023-08-20T01:22:53;28.38;;;23.15;;
42912;SDS011;50720;54.324;18.558;2023-08-20T01:26:07;26.33;;;22.67;;
42912;SDS011;50720;54.324;18.558;2023-08-20T01:29:03;27.95;;;24.98;;
42912;SDS011;50720;54.324;18.558;2023-08-20T01:31:52;31.13;;;25.73;;
42912;SDS011;50720;54.324;18.558;2023-08-20T01:34:40;28.63;;;24.90;;
42912;SDS011;50720;54.324;18.558;2023-08-20T01:37:28;31.05;;;26.63;;
42912;SDS011;50720;54.324;18.558;2023-08-20T01:40:15;29.52;;;26.40;;
42912;SDS011;50720;54.324;18.558;2023-08-20T01:43:02;36.13;;;28.58;;
42912;SDS011;50720;54.324;18.558;2023-08-20T01:45:51;30.92;;;27.48;;
42912;SDS011;50720;54.324;18.558;2023-08-20T01:48:38;31.88;;;28.48;;
42912;SDS011;50720;54.324;18.558;2023-08-20T01:51:25;33.53;;;27.80;;
42912;SDS011;50720;54.324;18.558;2023-08-20T01:54:12;31.25;;;27.98;;
42912;SDS011;50720;54.324;18.558;2023-08-20T01:56:59;33.97;;;30.02;;
42912;SDS011;50720;54.324;18.558;2023-08-20T01:59:47;40.53;;;31.08;;
42912;SDS011;50720;54.324;18.558;2023-08-20T02:02:35;35.95;;;30.02;;
42912;SDS011;50720;54.324;18.558;2023-08-20T02:05:23;34.88;;;29.20;;
42912;SDS011;50720;54.324;18.558;2023-08-20T02:08:09;34.83;;;29.92;;
42912;SDS011;50720;54.324;18.558;2023-08-20T02:11:00;37.20;;;30.33;;
42912;SDS011;50720;54.324;18.558;2023-08-20T02:13:47;35.03;;;29.55;;
42912;SDS011;50720;54.324;18.558;2023-08-20T02:16:34;35.60;;;31.17;;
42912;SDS011;50720;54.324;18.558;2023-08-20T02:19:23;35.83;;;31.33;;
42912;SDS011;50720;54.324;18.558;2023-08-20T02:22:10;36.13;;;30.10;;
42912;SDS011;50720;54.324;18.558;2023-08-20T02:24:57;36.78;;;29.55;;
42912;SDS011;50720;54.324;18.558;2023-08-20T02:27:44;36.45;;;30.48;;
42912;SDS011;50720;54.324;18.558;2023-08-20T02:30:31;35.92;;;30.27;;
42912;SDS011;50720;54.324;18.558;2023-08-20T02:33:24;37.95;;;31.25;;
42912;SDS011;50720;54.324;18.558;2023-08-20T02:36:12;37.28;;;30.52;;
42912;SDS011;50720;54.324;18.558;2023-08-20T02:39:00;43.45;;;35.10;;
42912;SDS011;50720;54.324;18.558;2023-08-20T02:41:48;38.45;;;32.50;;
42912;SDS011;50720;54.324;18.558;2023-08-20T02:44:35;38.92;;;34.00;;
42912;SDS011;50720;54.324;18.558;2023-08-20T02:47:22;35.30;;;29.92;;
42912;SDS011;50720;54.324;18.558;2023-08-20T02:50:09;39.13;;;32.53;;
42912;SDS011;50720;54.324;18.558;2023-08-20T02:52:57;36.65;;;32.65;;
42912;SDS011;50720;54.324;18.558;2023-08-20T02:55:44;43.72;;;35.05;;
42912;SDS011;50720;54.324;18.558;2023-08-20T02:58:31;40.42;;;32.97;;
42912;SDS011;50720;54.324;18.558;2023-08-20T03:01:19;43.60;;;34.10;;
42912;SDS011;50720;54.324;18.558;2023-08-20T03:04:07;39.67;;;33.28;;
42912;SDS011;50720;54.324;18.558;2023-08-20T03:06:55;39.05;;;33.17;;
42912;SDS011;50720;54.324;18.558;2023-08-20T03:09:43;40.70;;;32.97;;
42912;SDS011;50720;54.324;18.558;2023-08-20T03:12:31;39.97;;;33.97;;
42912;SDS011;50720;54.324;18.558;2023-08-20T03:15:17;39.45;;;33.05;;
42912;SDS011;50720;54.324;18.558;2023-08-20T03:18:05;42.47;;;33.72;;
42912;SDS011;50720;54.324;18.558;2023-08-20T03:20:53;44.42;;;33.85;;
42912;SDS011;50720;54.324;18.558;2023-08-20T03:23:41;42.63;;;34.92;;
42912;SDS011;50720;54.324;18.558;2023-08-20T03:26:30;37.67;;;32.88;;
42912;SDS011;50720;54.324;18.558;2023-08-20T03:29:17;45.20;;;35.60;;
42912;SDS011;50720;54.324;18.558;2023-08-20T03:32:04;38.78;;;33.03;;
42912;SDS011;50720;54.324;18.558;2023-08-20T03:34:51;37.83;;;33.58;;
42912;SDS011;50720;54.324;18.558;2023-08-20T03:37:40;42.45;;;33.35;;
42912;SDS011;50720;54.324;18.558;2023-08-20T03:40:27;40.10;;;33.28;;
42912;SDS011;50720;54.324;18.558;2023-08-20T03:43:16;38.92;;;33.83;;
42912;SDS011;50720;54.324;18.558;2023-08-20T03:46:05;37.00;;;32.70;;
42912;SDS011;50720;54.324;18.558;2023-08-20T03:48:52;38.85;;;32.50;;
42912;SDS011;50720;54.324;18.558;2023-08-20T03:51:39;37.47;;;31.17;;
42912;SDS011;50720;54.324;18.558;2023-08-20T03:54:27;39.60;;;31.48;;
42912;SDS011;50720;54.324;18.558;2023-08-20T03:57:14;42.13;;;32.47;;
42912;SDS011;50720;54.324;18.558;2023-08-20T04:00:04;36.40;;;30.42;;
42912;SDS011;50720;54.324;18.558;2023-08-20T04:02:54;34.33;;;29.10;;
42912;SDS011;50720;54.324;18.558;2023-08-20T04:05:41;34.50;;;29.20;;
42912;SDS011;50720;54.324;18.558;2023-08-20T04:08:29;34.22;;;29.05;;
42912;SDS011;50720;54.324;18.558;2023-08-20T04:11:16;30.88;;;27.35;;
42912;SDS011;50720;54.324;18.558;2023-08-20T04:14:03;32.08;;;27.58;;
42912;SDS011;50720;54.324;18.558;2023-08-20T04:16:52;35.42;;;27.65;;
42912;SDS011;50720;54.324;18.558;2023-08-20T04:19:40;28.92;;;25.65;;
42912;SDS011;50720;54.324;18.558;2023-08-20T04:22:27;34.38;;;23.77;;
42912;SDS011;50720;54.324;18.558;2023-08-20T04:25:16;25.65;;;23.00;;
42912;SDS011;50720;54.324;18.558;2023-08-20T04:28:03;30.85;;;25.35;;
42912;SDS011;50720;54.324;18.558;2023-08-20T04:30:51;27.73;;;24.88;;
42912;SDS011;50720;54.324;18.558;2023-08-20T04:33:40;31.20;;;24.52;;
42912;SDS011;50720;54.324;18.558;2023-08-20T04:36:27;28.77;;;23.60;;
42912;SDS011;50720;54.324;18.558;2023-08-20T04:39:15;26.73;;;23.85;;
42912;SDS011;50720;54.324;18.558;2023-08-20T04:42:04;24.98;;;22.33;;
42912;SDS011;50720;54.324;18.558;2023-08-20T04:44:51;29.55;;;22.50;;
42912;SDS011;50720;54.324;18.558;2023-08-20T04:47:38;27.05;;;22.10;;
42912;SDS011;50720;54.324;18.558;2023-08-20T04:50:27;26.65;;;22.00;;
42912;SDS011;50720;54.324;18.558;2023-08-20T04:53:15;23.73;;;19.57;;
42912;SDS011;50720;54.324;18.558;2023-08-20T04:56:02;23.20;;;20.80;;
42912;SDS011;50720;54.324;18.558;2023-08-20T04:58:49;21.00;;;18.48;;
42912;SDS011;50720;54.324;18.558;2023-08-20T05:01:36;22.60;;;19.10;;
42912;SDS011;50720;54.324;18.558;2023-08-20T05:04:23;20.92;;;18.77;;
42912;SDS011;50720;54.324;18.558;2023-08-20T05:07:12;22.27;;;19.35;;
42912;SDS011;50720;54.324;18.558;2023-08-20T05:09:59;19.92;;;17.77;;
42912;SDS011;50720;54.324;18.558;2023-08-20T05:12:46;23.38;;;18.30;;
42912;SDS011;50720;54.324;18.558;2023-08-20T05:15:34;20.65;;;17.80;;
42912;SDS011;50720;54.324;18.558;2023-08-20T05:18:20;18.48;;;16.45;;
42912;SDS011;50720;54.324;18.558;2023-08-20T05:21:08;17.65;;;15.77;;
42912;SDS011;50720;54.324;18.558;2023-08-20T05:23:59;18.23;;;15.97;;
42912;SDS011;50720;54.324;18.558;2023-08-20T05:26:46;18.60;;;16.33;;
42912;SDS011;50720;54.324;18.558;2023-08-20T05:29:33;17.02;;;15.32;;
42912;SDS011;50720;54.324;18.558;2023-08-20T05:32:20;15.88;;;14.35;;
42912;SDS011;50720;54.324;18.558;2023-08-20T05:35:08;15.77;;;14.02;;
42912;SDS011;50720;54.324;18.558;2023-08-20T05:37:55;15.30;;;13.30;;
42912;SDS011;50720;54.324;18.558;2023-08-20T05:40:44;18.80;;;14.23;;
42912;SDS011;50720;54.324;18.558;2023-08-20T05:43:31;15.85;;;14.18;;
42912;SDS011;50720;54.324;18.558;2023-08-20T05:46:17;16.30;;;13.15;;
42912;SDS011;50720;54.324;18.558;2023-08-20T05:49:04;14.77;;;13.38;;
42912;SDS011;50720;54.324;18.558;2023-08-20T05:51:51;16.33;;;13.95;;
42912;SDS011;50720;54.324;18.558;2023-08-20T05:54:38;16.05;;;14.35;;
42912;SDS011;50720;54.324;18.558;2023-08-20T05:57:27;16.88;;;13.80;;
42912;SDS011;50720;54.324;18.558;2023-08-20T06:00:14;13.45;;;12.10;;
42912;SDS011;50720;54.324;18.558;2023-08-20T06:03:02;16.00;;;12.70;;
42912;SDS011;50720;54.324;18.558;2023-08-20T06:05:50;14.07;;;12.73;;
42912;SDS011;50720;54.324;18.558;2023-08-20T06:08:37;14.02;;;12.63;;
42912;SDS011;50720;54.324;18.558;2023-08-20T06:11:24;15.00;;;13.40;;
42912;SDS011;50720;54.324;18.558;2023-08-20T06:14:12;16.50;;;13.73;;
42912;SDS011;50720;54.324;18.558;2023-08-20T06:16:59;14.32;;;12.85;;
42912;SDS011;50720;54.324;18.558;2023-08-20T06:19:46;17.00;;;14.10;;
42912;SDS011;50720;54.324;18.558;2023-08-20T06:22:34;15.95;;;14.48;;
42912;SDS011;50720;54.324;18.558;2023-08-20T06:25:21;16.75;;;15.05;;
42912;SDS011;50720;54.324;18.558;2023-08-20T06:28:08;15.18;;;13.45;;
42912;SDS011;50720;54.324;18.558;2023-08-20T06:30:56;13.50;;;12.00;;
42912;SDS011;50720;54.324;18.558;2023-08-20T06:33:44;11.25;;;10.10;;
42912;SDS011;50720;54.324;18.558;2023-08-20T06:36:30;13.20;;;11.07;;
42912;SDS011;50720;54.324;18.558;2023-08-20T06:39:18;12.82;;;11.25;;
42912;SDS011;50720;54.324;18.558;2023-08-20T06:42:05;15.98;;;11.70;;
42912;SDS011;50720;54.324;18.558;2023-08-20T06:44:52;12.60;;;10.68;;
42912;SDS011;50720;54.324;18.558;2023-08-20T06:47:41;13.02;;;11.40;;
42912;SDS011;50720;54.324;18.558;2023-08-20T06:50:28;18.58;;;16.27;;
42912;SDS011;50720;54.324;18.558;2023-08-20T06:53:15;14.27;;;12.88;;
42912;SDS011;50720;54.324;18.558;2023-08-20T06:56:02;14.90;;;13.35;;
42912;SDS011;50720;54.324;18.558;2023-08-20T06:58:49;14.73;;;12.95;;
42912;SDS011;50720;54.324;18.558;2023-08-20T07:01:37;14.23;;;12.75;;
42912;SDS011;50720;54.324;18.558;2023-08-20T07:04:25;16.15;;;12.77;;
42912;SDS011;50720;54.324;18.558;2023-08-20T07:07:12;13.55;;;12.25;;
42912;SDS011;50720;54.324;18.558;2023-08-20T07:10:00;20.50;;;16.48;;
42912;SDS011;50720;54.324;18.558;2023-08-20T07:12:49;13.68;;;12.27;;
42912;SDS011;50720;54.324;18.558;2023-08-20T07:15:35;12.60;;;11.18;;
42912;SDS011;50720;54.324;18.558;2023-08-20T07:18:23;12.93;;;11.35;;
42912;SDS011;50720;54.324;18.558;2023-08-20T07:21:11;14.57;;;11.90;;
42912;SDS011;50720;54.324;18.558;2023-08-20T07:23:58;12.18;;;10.98;;
42912;SDS011;50720;54.324;18.558;2023-08-20T07:26:45;12.10;;;10.95;;
42912;SDS011;50720;54.324;18.558;2023-08-20T07:29:32;12.85;;;10.43;;
42912;SDS011;50720;54.324;18.558;2023-08-20T07:32:19;14.82;;;10.68;;
42912;SDS011;50720;54.324;18.558;2023-08-20T07:35:07;12.05;;;10.73;;
42912;SDS011;50720;54.324;18.558;2023-08-20T07:37:56;11.27;;;10.18;;
42912;SDS011;50720;54.324;18.558;2023-08-20T07:40:43;11.65;;;10.43;;
42912;SDS011;50720;54.324;18.558;2023-08-20T07:43:30;12.15;;;11.05;;
42912;SDS011;50720;54.324;18.558;2023-08-20T07:46:17;15.50;;;11.55;;
42912;SDS011;50720;54.324;18.558;2023-08-20T07:49:05;12.98;;;11.43;;
42912;SDS011;50720;54.324;18.558;2023-08-20T07:51:53;22.50;;;11.13;;
42912;SDS011;50720;54.324;18.558;2023-08-20T07:54:42;11.90;;;10.73;;
42912;SDS011;50720;54.324;18.558;2023-08-20T07:57:29;12.73;;;11.48;;
42912;SDS011;50720;54.324;18.558;2023-08-20T08:00:16;12.38;;;11.20;;
42912;SDS011;50720;54.324;18.558;2023-08-20T08:03:04;15.40;;;11.02;;
42912;SDS011;50720;54.324;18.558;2023-08-20T08:05:51;12.43;;;11.23;;
42912;SDS011;50720;54.324;18.558;2023-08-20T08:08:41;11.90;;;10.70;;
42912;SDS011;50720;54.324;18.558;2023-08-20T08:11:30;13.80;;;10.85;;
42912;SDS011;50720;54.324;18.558;2023-08-20T08:14:17;11.68;;;10.50;;
42912;SDS011;50720;54.324;18.558;2023-08-20T08:17:05;11.32;;;9.88;;
42912;SDS011;50720;54.324;18.558;2023-08-20T08:19:52;12.25;;;11.15;;
42912;SDS011;50720;54.324;18.558;2023-08-20T08:22:39;12.82;;;10.90;;
42912;SDS011;50720;54.324;18.558;2023-08-20T08:25:28;14.07;;;11.38;;
42912;SDS011;50720;54.324;18.558;2023-08-20T08:28:16;11.93;;;10.75;;
42912;SDS011;50720;54.324;18.558;2023-08-20T08:31:04;15.52;;;13.15;;
42912;SDS011;50720;54.324;18.558;2023-08-20T08:33:51;12.35;;;11.02;;
42912;SDS011;50720;54.324;18.558;2023-08-20T08:36:38;12.70;;;11.30;;
42912;SDS011;50720;54.324;18.558;2023-08-20T08:39:25;15.15;;;11.63;;
42912;SDS011;50720;54.324;18.558;2023-08-20T08:42:12;13.40;;;12.10;;
42912;SDS011;50720;54.324;18.558;2023-08-20T08:45:02;12.75;;;11.40;;
42912;SDS011;50720;54.324;18.558;2023-08-20T08:47:49;13.20;;;11.57;;
42912;SDS011;50720;54.324;18.558;2023-08-20T08:50:39;13.63;;;11.82;;
42912;SDS011;50720;54.324;18.558;2023-08-20T08:53:26;13.52;;;11.07;;
42912;SDS011;50720;54.324;18.558;2023-08-20T08:56:13;16.77;;;11.77;;
42912;SDS011;50720;54.324;18.558;2023-08-20T08:59:00;17.17;;;13.15;;
42912;SDS011;50720;54.324;18.558;2023-08-20T09:01:49;14.38;;;12.07;;
42912;SDS011;50720;54.324;18.558;2023-08-20T09:04:37;15.70;;;13.05;;
42912;SDS011;50720;54.324;18.558;2023-08-20T09:07:25;15.35;;;12.43;;
42912;SDS011;50720;54.324;18.558;2023-08-20T09:10:12;19.90;;;13.50;;
42912;SDS011;50720;54.324;18.558;2023-08-20T09:13:03;14.93;;;12.68;;
42912;SDS011;50720;54.324;18.558;2023-08-20T09:15:51;14.05;;;12.18;;
42912;SDS011;50720;54.324;18.558;2023-08-20T09:18:40;13.52;;;12.23;;
42912;SDS011;50720;54.324;18.558;2023-08-20T09:21:28;19.73;;;12.05;;
42912;SDS011;50720;54.324;18.558;2023-08-20T09:24:15;12.48;;;10.60;;
42912;SDS011;50720;54.324;18.558;2023-08-20T09:27:03;14.18;;;10.25;;
42912;SDS011;50720;54.324;18.558;2023-08-20T09:29:51;17.95;;;10.57;;
42912;SDS011;50720;54.324;18.558;2023-08-20T09:32:39;11.77;;;9.88;;
42912;SDS011;50720;54.324;18.558;2023-08-20T09:35:27;15.23;;;11.02;;
42912;SDS011;50720;54.324;18.558;2023-08-20T09:38:16;16.07;;;11.17;;
42912;SDS011;50720;54.324;18.558;2023-08-20T09:41:05;12.50;;;10.15;;
42912;SDS011;50720;54.324;18.558;2023-08-20T09:43:55;12.00;;;10.80;;
42912;SDS011;50720;54.324;18.558;2023-08-20T09:46:43;16.23;;;10.95;;
42912;SDS011;50720;54.324;18.558;2023-08-20T09:49:32;15.27;;;10.00;;
42912;SDS011;50720;54.324;18.558;2023-08-20T09:52:25;22.05;;;11.57;;
42912;SDS011;50720;54.324;18.558;2023-08-20T09:55:21;12.95;;;10.73;;
42912;SDS011;50720;54.324;18.558;2023-08-20T09:58:09;16.88;;;11.63;;
42912;SDS011;50720;54.324;18.558;2023-08-20T10:00:59;14.10;;;10.93;;
42912;SDS011;50720;54.324;18.558;2023-08-20T10:03:46;18.05;;;11.75;;
42912;SDS011;50720;54.324;18.558;2023-08-20T10:06:33;12.95;;;11.48;;
42912;SDS011;50720;54.324;18.558;2023-08-20T10:09:23;11.93;;;10.48;;
42912;SDS011;50720;54.324;18.558;2023-08-20T10:12:12;15.00;;;11.07;;
42912;SDS011;50720;54.324;18.558;2023-08-20T10:14:59;15.15;;;12.90;;
42912;SDS011;50720;54.324;18.558;2023-08-20T10:17:47;16.77;;;11.85;;
42912;SDS011;50720;54.324;18.558;2023-08-20T10:20:35;13.65;;;10.77;;
42912;SDS011;50720;54.324;18.558;2023-08-20T10:23:25;12.23;;;10.40;;
42912;SDS011;50720;54.324;18.558;2023-08-20T10:26:14;12.23;;;10.40;;
42912;SDS011;50720;54.324;18.558;2023-08-20T10:32:43;11.85;;;9.57;;
42912;SDS011;50720;54.324;18.558;2023-08-20T10:35:46;11.15;;;8.85;;
42912;SDS011;50720;54.324;18.558;2023-08-20T10:38:35;15.20;;;9.98;;
42912;SDS011;50720;54.324;18.558;2023-08-20T10:41:27;14.57;;;9.77;;
42912;SDS011;50720;54.324;18.558;2023-08-20T10:44:14;13.50;;;10.30;;
42912;SDS011;50720;54.324;18.558;2023-08-20T10:47:02;12.63;;;9.65;;
42912;SDS011;50720;54.324;18.558;2023-08-20T10:49:53;11.95;;;9.70;;
42912;SDS011;50720;54.324;18.558;2023-08-20T10:52:41;11.10;;;9.50;;
42912;SDS011;50720;54.324;18.558;2023-08-20T10:55:33;12.15;;;9.98;;
42912;SDS011;50720;54.324;18.558;2023-08-20T10:58:25;19.55;;;12.18;;
42912;SDS011;50720;54.324;18.558;2023-08-20T11:01:18;25.45;;;15.30;;
42912;SDS011;50720;54.324;18.558;2023-08-20T11:04:07;18.17;;;12.82;;
42912;SDS011;50720;54.324;18.558;2023-08-20T11:06:55;16.05;;;12.40;;
42912;SDS011;50720;54.324;18.558;2023-08-20T11:09:43;15.50;;;13.90;;
42912;SDS011;50720;54.324;18.558;2023-08-20T11:12:31;18.80;;;14.43;;
42912;SDS011;50720;54.324;18.558;2023-08-20T11:15:20;26.15;;;21.58;;
42912;SDS011;50720;54.324;18.558;2023-08-20T11:18:07;15.10;;;13.63;;
42912;SDS011;50720;54.324;18.558;2023-08-20T11:20:55;17.60;;;14.65;;
42912;SDS011;50720;54.324;18.558;2023-08-20T11:23:43;16.10;;;14.45;;
42912;SDS011;50720;54.324;18.558;2023-08-20T11:26:32;16.58;;;14.82;;
42912;SDS011;50720;54.324;18.558;2023-08-20T11:29:20;18.75;;;14.77;;
42912;SDS011;50720;54.324;18.558;2023-08-20T11:32:09;17.17;;;15.50;;
42912;SDS011;50720;54.324;18.558;2023-08-20T11:34:55;15.77;;;14.15;;
42912;SDS011;50720;54.324;18.558;2023-08-20T11:37:43;16.67;;;15.07;;
42912;SDS011;50720;54.324;18.558;2023-08-20T11:40:30;17.90;;;16.00;;
42912;SDS011;50720;54.324;18.558;2023-08-20T11:43:18;26.77;;;18.02;;
42912;SDS011;50720;54.324;18.558;2023-08-20T11:46:04;20.17;;;14.52;;
42912;SDS011;50720;54.324;18.558;2023-08-20T11:49:06;16.20;;;14.07;;
42912;SDS011;50720;54.324;18.558;2023-08-20T11:51:55;18.60;;;15.20;;
42912;SDS011;50720;54.324;18.558;2023-08-20T11:54:43;18.73;;;14.45;;
42912;SDS011;50720;54.324;18.558;2023-08-20T11:57:30;18.10;;;13.98;;
42912;SDS011;50720;54.324;18.558;2023-08-20T12:00:24;17.65;;;14.52;;
42912;SDS011;50720;54.324;18.558;2023-08-20T12:03:12;13.52;;;12.13;;
42912;SDS011;50720;54.324;18.558;2023-08-20T12:06:01;16.75;;;13.70;;
42912;SDS011;50720;54.324;18.558;2023-08-20T12:09:18;17.02;;;12.95;;
42912;SDS011;50720;54.324;18.558;2023-08-20T12:12:06;11.88;;;10.68;;
42912;SDS011;50720;54.324;18.558;2023-08-20T12:14:53;14.27;;;10.55;;
42912;SDS011;50720;54.324;18.558;2023-08-20T12:17:40;11.45;;;8.68;;
42912;SDS011;50720;54.324;18.558;2023-08-20T12:20:28;8.18;;;7.43;;
42912;SDS011;50720;54.324;18.558;2023-08-20T12:23:17;9.60;;;6.35;;
42912;SDS011;50720;54.324;18.558;2023-08-20T12:26:04;9.02;;;6.88;;
42912;SDS011;50720;54.324;18.558;2023-08-20T12:28:53;8.25;;;6.60;;
42912;SDS011;50720;54.324;18.558;2023-08-20T12:31:41;5.50;;;5.05;;
42912;SDS011;50720;54.324;18.558;2023-08-20T12:34:28;6.07;;;5.50;;
42912;SDS011;50720;54.324;18.558;2023-08-20T12:37:15;6.13;;;5.55;;
42912;SDS011;50720;54.324;18.558;2023-08-20T12:40:04;6.95;;;6.25;;
42912;SDS011;50720;54.324;18.558;2023-08-20T12:42:54;7.75;;;6.55;;
42912;SDS011;50720;54.324;18.558;2023-08-20T12:45:42;8.00;;;6.97;;
42912;SDS011;50720;54.324;18.558;2023-08-20T12:48:28;7.97;;;7.18;;
42912;SDS011;50720;54.324;18.558;2023-08-20T12:51:16;12.43;;;9.93;;
42912;SDS011;50720;54.324;18.558;2023-08-20T12:54:03;12.75;;;10.50;;
42912;SDS011;50720;54.324;18.558;2023-08-20T12:56:52;10.43;;;9.23;;
42912;SDS011;50720;54.324;18.558;2023-08-20T12:59:39;11.27;;;9.88;;
42912;SDS011;50720;54.324;18.558;2023-08-20T13:02:26;12.60;;;8.93;;
42912;SDS011;50720;54.324;18.558;2023-08-20T13:05:13;11.43;;;8.85;;
42912;SDS011;50720;54.324;18.558;2023-08-20T13:08:01;10.18;;;9.18;;
42912;SDS011;50720;54.324;18.558;2023-08-20T13:10:50;9.13;;;8.32;;
42912;SDS011;50720;54.324;18.558;2023-08-20T13:13:41;10.05;;;6.78;;
42912;SDS011;50720;54.324;18.558;2023-08-20T13:16:28;7.82;;;7.03;;
42912;SDS011;50720;54.324;18.558;2023-08-20T13:19:16;8.10;;;6.30;;
42912;SDS011;50720;54.324;18.558;2023-08-20T13:22:03;9.35;;;7.03;;
42912;SDS011;50720;54.324;18.558;2023-08-20T13:24:51;9.00;;;7.20;;
42912;SDS011;50720;54.324;18.558;2023-08-20T13:27:37;9.20;;;5.63;;
42912;SDS011;50720;54.324;18.558;2023-08-20T13:30:26;6.90;;;5.38;;
42912;SDS011;50720;54.324;18.558;2023-08-20T13:33:13;6.72;;;5.55;;
42912;SDS011;50720;54.324;18.558;2023-08-20T13:36:00;6.18;;;4.80;;
42912;SDS011;50720;54.324;18.558;2023-08-20T13:38:48;6.47;;;5.85;;
42912;SDS011;50720;54.324;18.558;2023-08-20T13:41:35;6.13;;;5.55;;
42912;SDS011;50720;54.324;18.558;2023-08-20T13:44:22;6.10;;;5.00;;
42912;SDS011;50720;54.324;18.558;2023-08-20T13:47:11;7.03;;;5.28;;
42912;SDS011;50720;54.324;18.558;2023-08-20T13:49:58;9.95;;;4.50;;
42912;SDS011;50720;54.324;18.558;2023-08-20T13:52:45;6.22;;;4.95;;
42912;SDS011;50720;54.324;18.558;2023-08-20T13:55:31;6.07;;;5.40;;
42912;SDS011;50720;54.324;18.558;2023-08-20T13:58:19;5.85;;;5.32;;
42912;SDS011;50720;54.324;18.558;2023-08-20T14:01:05;7.40;;;5.20;;
42912;SDS011;50720;54.324;18.558;2023-08-20T14:03:54;6.20;;;5.70;;
42912;SDS011;50720;54.324;18.558;2023-08-20T14:06:41;7.75;;;6.85;;
42912;SDS011;50720;54.324;18.558;2023-08-20T14:09:28;9.07;;;5.88;;
42912;SDS011;50720;54.324;18.558;2023-08-20T14:12:15;8.65;;;6.57;;
42912;SDS011;50720;54.324;18.558;2023-08-20T14:15:02;8.30;;;6.05;;
42912;SDS011;50720;54.324;18.558;2023-08-20T14:17:49;6.53;;;5.93;;
42912;SDS011;50720;54.324;18.558;2023-08-20T14:20:38;6.28;;;5.78;;
42912;SDS011;50720;54.324;18.558;2023-08-20T14:23:24;8.80;;;6.13;;
42912;SDS011;50720;54.324;18.558;2023-08-20T14:26:12;8.13;;;6.80;;
42912;SDS011;50720;54.324;18.558;2023-08-20T14:29:00;7.90;;;6.65;;
42912;SDS011;50720;54.324;18.558;2023-08-20T14:31:47;7.90;;;6.30;;
42912;SDS011;50720;54.324;18.558;2023-08-20T14:34:34;6.70;;;6.10;;
42912;SDS011;50720;54.324;18.558;2023-08-20T14:37:23;6.88;;;6.13;;
42912;SDS011;50720;54.324;18.558;2023-08-20T14:40:11;6.78;;;5.95;;
42912;SDS011;50720;54.324;18.558;2023-08-20T14:42:58;8.85;;;6.30;;
42912;SDS011;50720;54.324;18.558;2023-08-20T14:45:45;6.45;;;5.43;;
42912;SDS011;50720;54.324;18.558;2023-08-20T14:48:32;8.35;;;5.93;;
42912;SDS011;50720;54.324;18.558;2023-08-20T14:51:24;9.35;;;5.30;;
42912;SDS011;50720;54.324;18.558;2023-08-20T14:54:13;7.75;;;5.65;;
42912;SDS011;50720;54.324;18.558;2023-08-20T14:57:00;7.82;;;5.20;;
42912;SDS011;50720;54.324;18.558;2023-08-20T14:59:47;6.57;;;4.90;;
42912;SDS011;50720;54.324;18.558;2023-08-20T15:02:34;9.05;;;5.47;;
42912;SDS011;50720;54.324;18.558;2023-08-20T15:05:21;9.18;;;5.82;;
42912;SDS011;50720;54.324;18.558;2023-08-20T15:08:08;5.90;;;5.00;;
42912;SDS011;50720;54.324;18.558;2023-08-20T15:10:57;6.60;;;5.50;;
42912;SDS011;50720;54.324;18.558;2023-08-20T15:13:45;7.10;;;5.15;;
42912;SDS011;50720;54.324;18.558;2023-08-20T15:16:32;6.03;;;5.43;;
42912;SDS011;50720;54.324;18.558;2023-08-20T15:19:19;5.78;;;5.38;;
42912;SDS011;50720;54.324;18.558;2023-08-20T15:22:07;8.20;;;6.32;;
42912;SDS011;50720;54.324;18.558;2023-08-20T15:24:54;6.05;;;5.45;;
42912;SDS011;50720;54.324;18.558;2023-08-20T15:27:42;7.20;;;6.00;;
42912;SDS011;50720;54.324;18.558;2023-08-20T15:30:29;6.57;;;6.05;;
42912;SDS011;50720;54.324;18.558;2023-08-20T15:33:16;9.52;;;5.63;;
42912;SDS011;50720;54.324;18.558;2023-08-20T15:36:04;6.70;;;5.95;;
42912;SDS011;50720;54.324;18.558;2023-08-20T15:38:51;7.22;;;5.90;;
42912;SDS011;50720;54.324;18.558;2023-08-20T15:41:38;7.10;;;6.40;;
42912;SDS011;50720;54.324;18.558;2023-08-20T15:44:28;10.88;;;5.88;;
42912;SDS011;50720;54.324;18.558;2023-08-20T15:47:15;6.78;;;6.07;;
42912;SDS011;50720;54.324;18.558;2023-08-20T15:50:02;9.45;;;6.05;;
42912;SDS011;50720;54.324;18.558;2023-08-20T15:52:49;6.43;;;5.82;;
42912;SDS011;50720;54.324;18.558;2023-08-20T15:55:37;7.40;;;5.97;;
42912;SDS011;50720;54.324;18.558;2023-08-20T15:58:23;9.57;;;6.85;;
42912;SDS011;50720;54.324;18.558;2023-08-20T16:01:12;6.75;;;5.90;;
42912;SDS011;50720;54.324;18.558;2023-08-20T16:04:00;6.30;;;5.65;;
42912;SDS011;50720;54.324;18.558;2023-08-20T16:06:47;6.35;;;5.82;;
42912;SDS011;50720;54.324;18.558;2023-08-20T16:09:35;6.88;;;6.22;;
42912;SDS011;50720;54.324;18.558;2023-08-20T16:12:22;7.15;;;6.40;;
42912;SDS011;50720;54.324;18.558;2023-08-20T16:15:10;6.97;;;6.38;;
42912;SDS011;50720;54.324;18.558;2023-08-20T16:17:58;6.90;;;6.30;;
42912;SDS011;50720;54.324;18.558;2023-08-20T16:20:46;8.97;;;8.17;;